sensor_id;sensor_type;location;lat;lon;timestamp;P1;durP1;ratioP1;P2;durP2;ratioP2
5121;SDS011;2563;52.242;7.956;2023-11-21T00:02:04;31.80;;;9.20;;
5121;SDS011;2563;52.242;7.956;2023-11-21T00:04:29;28.23;;;9.87;;
5121;SDS011;2563;52.242;7.956;2023-11-21T00:06:55;25.07;;;9.73;;
5121;SDS011;2563;52.242;7.956;2023-11-21T00:09:20;23.90;;;8.50;;
5121;SDS011;2563;52.242;7.956;2023-11-21T00:11:46;27.10;;;10.00;;
5121;SDS011;2563;52.242;7.956;2023-11-21T00:14:12;25.70;;;10.17;;
5121;SDS011;2563;52.242;7.956;2023-11-21T00:16:37;29.30;;;10.60;;
5121;SDS011;2563;52.242;7.956;2023-11-21T00:19:02;27.97;;;9.00;;
5121;SDS011;2563;52.242;7.956;2023-11-21T00:21:28;29.70;;;10.60;;
5121;SDS011;2563;52.242;7.956;2023-11-21T00:23:53;30.10;;;10.17;;
5121;SDS011;2563;52.242;7.956;2023-11-21T00:26:18;28.17;;;11.47;;
5121;SDS011;2563;52.242;7.956;2023-11-21T00:28:44;35.70;;;10.53;;
5121;SDS011;2563;52.242;7.956;2023-11-21T00:31:10;28.27;;;11.20;;
5121;SDS011;2563;52.242;7.956;2023-11-21T00:33:35;25.80;;;11.13;;
5121;SDS011;2563;52.242;7.956;2023-11-21T00:36:01;34.57;;;11.47;;
5121;SDS011;2563;52.242;7.956;2023-11-21T00:38:26;31.67;;;12.33;;
5121;SDS011;2563;52.242;7.956;2023-11-21T00:40:52;25.53;;;9.47;;
5121;SDS011;2563;52.242;7.956;2023-11-21T00:43:21;27.27;;;11.17;;
5121;SDS011;2563;52.242;7.956;2023-11-21T00:45:47;27.33;;;9.70;;
5121;SDS011;2563;52.242;7.956;2023-11-21T00:48:14;26.13;;;10.73;;
5121;SDS011;2563;52.242;7.956;2023-11-21T00:50:39;34.23;;;10.60;;
5121;SDS011;2563;52.242;7.956;2023-11-21T00:53:05;29.50;;;11.30;;
5121;SDS011;2563;52.242;7.956;2023-11-21T00:55:32;30.53;;;10.73;;
5121;SDS011;2563;52.242;7.956;2023-11-21T00:57:58;30.23;;;10.97;;
5121;SDS011;2563;52.242;7.956;2023-11-21T01:00:23;34.57;;;11.80;;
5121;SDS011;2563;52.242;7.956;2023-11-21T01:02:49;32.07;;;11.70;;
5121;SDS011;2563;52.242;7.956;2023-11-21T01:05:14;24.20;;;9.97;;
5121;SDS011;2563;52.242;7.956;2023-11-21T01:07:39;35.47;;;10.90;;
5121;SDS011;2563;52.242;7.956;2023-11-21T01:10:05;29.97;;;11.03;;
5121;SDS011;2563;52.242;7.956;2023-11-21T01:12:32;31.00;;;10.83;;
5121;SDS011;2563;52.242;7.956;2023-11-21T01:15:02;28.70;;;11.60;;
5121;SDS011;2563;52.242;7.956;2023-11-21T01:17:28;33.80;;;11.23;;
5121;SDS011;2563;52.242;7.956;2023-11-21T01:19:54;31.47;;;11.03;;
5121;SDS011;2563;52.242;7.956;2023-11-21T01:22:21;25.77;;;9.70;;
5121;SDS011;2563;52.242;7.956;2023-11-21T01:24:50;35.40;;;10.20;;
5121;SDS011;2563;52.242;7.956;2023-11-21T01:27:16;30.27;;;10.77;;
5121;SDS011;2563;52.242;7.956;2023-11-21T01:29:42;39.23;;;10.83;;
5121;SDS011;2563;52.242;7.956;2023-11-21T01:32:07;31.30;;;9.63;;
5121;SDS011;2563;52.242;7.956;2023-11-21T01:34:33;31.83;;;10.40;;
5121;SDS011;2563;52.242;7.956;2023-11-21T01:36:58;29.07;;;10.57;;
5121;SDS011;2563;52.242;7.956;2023-11-21T01:39:24;41.30;;;11.10;;
5121;SDS011;2563;52.242;7.956;2023-11-21T01:41:50;32.43;;;10.70;;
5121;SDS011;2563;52.242;7.956;2023-11-21T01:44:16;35.00;;;9.93;;
5121;SDS011;2563;52.242;7.956;2023-11-21T01:46:44;32.77;;;10.53;;
5121;SDS011;2563;52.242;7.956;2023-11-21T01:49:10;29.80;;;10.80;;
5121;SDS011;2563;52.242;7.956;2023-11-21T01:51:38;33.87;;;10.60;;
5121;SDS011;2563;52.242;7.956;2023-11-21T01:54:04;26.10;;;10.43;;
5121;SDS011;2563;52.242;7.956;2023-11-21T01:56:31;25.03;;;10.20;;
5121;SDS011;2563;52.242;7.956;2023-11-21T01:58:57;26.77;;;10.40;;
5121;SDS011;2563;52.242;7.956;2023-11-21T02:01:22;29.17;;;11.10;;
5121;SDS011;2563;52.242;7.956;2023-11-21T02:03:48;32.00;;;10.97;;
5121;SDS011;2563;52.242;7.956;2023-11-21T02:06:13;32.37;;;9.90;;
5121;SDS011;2563;52.242;7.956;2023-11-21T02:08:39;25.77;;;9.63;;
5121;SDS011;2563;52.242;7.956;2023-11-21T02:11:04;22.60;;;9.40;;
5121;SDS011;2563;52.242;7.956;2023-11-21T02:13:30;34.60;;;10.10;;
5121;SDS011;2563;52.242;7.956;2023-11-21T02:15:56;46.43;;;11.00;;
5121;SDS011;2563;52.242;7.956;2023-11-21T02:18:23;28.00;;;9.60;;
5121;SDS011;2563;52.242;7.956;2023-11-21T02:20:48;29.97;;;10.60;;
5121;SDS011;2563;52.242;7.956;2023-11-21T02:23:14;30.10;;;9.77;;
5121;SDS011;2563;52.242;7.956;2023-11-21T02:25:39;39.77;;;11.40;;
5121;SDS011;2563;52.242;7.956;2023-11-21T02:28:07;28.13;;;10.27;;
5121;SDS011;2563;52.242;7.956;2023-11-21T02:30:33;27.47;;;9.30;;
5121;SDS011;2563;52.242;7.956;2023-11-21T02:32:58;28.00;;;10.33;;
5121;SDS011;2563;52.242;7.956;2023-11-21T02:35:24;26.87;;;9.50;;
5121;SDS011;2563;52.242;7.956;2023-11-21T02:37:51;31.63;;;11.60;;
5121;SDS011;2563;52.242;7.956;2023-11-21T02:40:17;25.43;;;9.33;;
5121;SDS011;2563;52.242;7.956;2023-11-21T02:42:43;31.17;;;11.60;;
5121;SDS011;2563;52.242;7.956;2023-11-21T02:45:10;31.23;;;11.60;;
5121;SDS011;2563;52.242;7.956;2023-11-21T02:47:37;29.80;;;10.53;;
5121;SDS011;2563;52.242;7.956;2023-11-21T02:50:03;29.10;;;10.13;;
5121;SDS011;2563;52.242;7.956;2023-11-21T02:52:29;30.77;;;10.47;;
5121;SDS011;2563;52.242;7.956;2023-11-21T02:54:54;25.90;;;8.57;;
5121;SDS011;2563;52.242;7.956;2023-11-21T02:57:20;29.30;;;9.60;;
5121;SDS011;2563;52.242;7.956;2023-11-21T02:59:45;24.47;;;9.07;;
5121;SDS011;2563;52.242;7.956;2023-11-21T03:02:10;28.70;;;9.70;;
5121;SDS011;2563;52.242;7.956;2023-11-21T03:04:36;24.03;;;8.90;;
5121;SDS011;2563;52.242;7.956;2023-11-21T03:07:01;30.30;;;11.10;;
5121;SDS011;2563;52.242;7.956;2023-11-21T03:09:26;26.23;;;11.40;;
5121;SDS011;2563;52.242;7.956;2023-11-21T03:11:52;27.00;;;9.90;;
5121;SDS011;2563;52.242;7.956;2023-11-21T03:14:18;26.00;;;10.10;;
5121;SDS011;2563;52.242;7.956;2023-11-21T03:16:44;30.10;;;10.90;;
5121;SDS011;2563;52.242;7.956;2023-11-21T03:19:10;33.43;;;10.20;;
5121;SDS011;2563;52.242;7.956;2023-11-21T03:21:36;34.40;;;11.90;;
5121;SDS011;2563;52.242;7.956;2023-11-21T03:24:01;33.17;;;12.20;;
5121;SDS011;2563;52.242;7.956;2023-11-21T03:26:26;33.27;;;11.70;;
5121;SDS011;2563;52.242;7.956;2023-11-21T03:28:52;36.63;;;12.20;;
5121;SDS011;2563;52.242;7.956;2023-11-21T03:31:18;29.47;;;10.50;;
5121;SDS011;2563;52.242;7.956;2023-11-21T03:33:44;30.80;;;11.40;;
5121;SDS011;2563;52.242;7.956;2023-11-21T03:36:10;31.70;;;11.63;;
5121;SDS011;2563;52.242;7.956;2023-11-21T03:38:36;37.60;;;11.17;;
5121;SDS011;2563;52.242;7.956;2023-11-21T03:41:02;24.73;;;10.10;;
5121;SDS011;2563;52.242;7.956;2023-11-21T03:43:27;33.43;;;10.20;;
5121;SDS011;2563;52.242;7.956;2023-11-21T03:45:52;33.80;;;10.23;;
5121;SDS011;2563;52.242;7.956;2023-11-21T03:48:18;25.67;;;9.53;;
5121;SDS011;2563;52.242;7.956;2023-11-21T03:50:43;28.77;;;11.47;;
5121;SDS011;2563;52.242;7.956;2023-11-21T03:53:08;28.13;;;9.87;;
5121;SDS011;2563;52.242;7.956;2023-11-21T03:55:34;26.63;;;9.73;;
5121;SDS011;2563;52.242;7.956;2023-11-21T03:57:59;27.33;;;10.87;;
5121;SDS011;2563;52.242;7.956;2023-11-21T04:00:24;33.87;;;11.20;;
5121;SDS011;2563;52.242;7.956;2023-11-21T04:02:52;27.17;;;10.17;;
5121;SDS011;2563;52.242;7.956;2023-11-21T04:05:17;31.73;;;10.90;;
5121;SDS011;2563;52.242;7.956;2023-11-21T04:07:43;27.00;;;10.77;;
5121;SDS011;2563;52.242;7.956;2023-11-21T04:10:08;38.07;;;11.67;;
5121;SDS011;2563;52.242;7.956;2023-11-21T04:12:35;27.53;;;10.00;;
5121;SDS011;2563;52.242;7.956;2023-11-21T04:15:01;34.67;;;11.60;;
5121;SDS011;2563;52.242;7.956;2023-11-21T04:17:26;29.93;;;10.43;;
5121;SDS011;2563;52.242;7.956;2023-11-21T04:19:51;34.70;;;11.00;;
5121;SDS011;2563;52.242;7.956;2023-11-21T04:22:16;32.37;;;11.87;;
5121;SDS011;2563;52.242;7.956;2023-11-21T04:24:42;30.63;;;10.90;;
5121;SDS011;2563;52.242;7.956;2023-11-21T04:27:07;33.37;;;11.53;;
5121;SDS011;2563;52.242;7.956;2023-11-21T04:29:33;32.40;;;10.73;;
5121;SDS011;2563;52.242;7.956;2023-11-21T04:31:58;33.20;;;10.17;;
5121;SDS011;2563;52.242;7.956;2023-11-21T04:34:23;28.17;;;9.93;;
5121;SDS011;2563;52.242;7.956;2023-11-21T04:36:49;26.57;;;10.77;;
5121;SDS011;2563;52.242;7.956;2023-11-21T04:39:15;35.60;;;11.63;;
5121;SDS011;2563;52.242;7.956;2023-11-21T04:41:40;32.30;;;12.07;;
5121;SDS011;2563;52.242;7.956;2023-11-21T04:44:06;32.63;;;12.33;;
5121;SDS011;2563;52.242;7.956;2023-11-21T04:46:31;41.10;;;12.83;;
5121;SDS011;2563;52.242;7.956;2023-11-21T04:48:57;36.90;;;12.60;;
5121;SDS011;2563;52.242;7.956;2023-11-21T04:51:23;31.03;;;11.87;;
5121;SDS011;2563;52.242;7.956;2023-11-21T04:53:48;30.20;;;11.20;;
5121;SDS011;2563;52.242;7.956;2023-11-21T04:56:14;37.70;;;12.60;;
5121;SDS011;2563;52.242;7.956;2023-11-21T04:58:41;34.10;;;11.50;;
5121;SDS011;2563;52.242;7.956;2023-11-21T05:01:07;36.10;;;12.73;;
5121;SDS011;2563;52.242;7.956;2023-11-21T05:03:32;40.80;;;12.77;;
5121;SDS011;2563;52.242;7.956;2023-11-21T05:05:58;34.03;;;12.23;;
5121;SDS011;2563;52.242;7.956;2023-11-21T05:08:24;33.83;;;12.10;;
5121;SDS011;2563;52.242;7.956;2023-11-21T05:10:51;33.20;;;11.50;;
5121;SDS011;2563;52.242;7.956;2023-11-21T05:13:17;30.17;;;11.40;;
5121;SDS011;2563;52.242;7.956;2023-11-21T05:15:43;31.60;;;11.57;;
5121;SDS011;2563;52.242;7.956;2023-11-21T05:18:09;33.90;;;11.50;;
5121;SDS011;2563;52.242;7.956;2023-11-21T05:20:35;30.43;;;11.13;;
5121;SDS011;2563;52.242;7.956;2023-11-21T05:23:01;30.60;;;10.90;;
5121;SDS011;2563;52.242;7.956;2023-11-21T05:25:26;30.37;;;10.50;;
5121;SDS011;2563;52.242;7.956;2023-11-21T05:27:52;31.00;;;10.50;;
5121;SDS011;2563;52.242;7.956;2023-11-21T05:30:18;26.67;;;9.80;;
5121;SDS011;2563;52.242;7.956;2023-11-21T05:32:43;31.57;;;11.27;;
5121;SDS011;2563;52.242;7.956;2023-11-21T05:35:09;28.10;;;10.53;;
5121;SDS011;2563;52.242;7.956;2023-11-21T05:37:40;29.70;;;9.73;;
5121;SDS011;2563;52.242;7.956;2023-11-21T05:40:06;28.20;;;10.60;;
5121;SDS011;2563;52.242;7.956;2023-11-21T05:42:32;30.30;;;11.80;;
5121;SDS011;2563;52.242;7.956;2023-11-21T05:44:58;31.60;;;10.77;;
5121;SDS011;2563;52.242;7.956;2023-11-21T05:47:45;28.50;;;10.80;;
5121;SDS011;2563;52.242;7.956;2023-11-21T05:50:12;26.43;;;10.27;;
5121;SDS011;2563;52.242;7.956;2023-11-21T05:52:45;29.00;;;11.37;;
5121;SDS011;2563;52.242;7.956;2023-11-21T05:55:12;26.37;;;10.20;;
5121;SDS011;2563;52.242;7.956;2023-11-21T05:57:38;30.30;;;10.50;;
5121;SDS011;2563;52.242;7.956;2023-11-21T06:02:50;26.00;;;10.20;;
5121;SDS011;2563;52.242;7.956;2023-11-21T06:05:21;26.00;;;10.00;;
5121;SDS011;2563;52.242;7.956;2023-11-21T06:07:48;30.87;;;9.83;;
5121;SDS011;2563;52.242;7.956;2023-11-21T06:10:14;30.47;;;10.83;;
5121;SDS011;2563;52.242;7.956;2023-11-21T06:12:39;32.13;;;10.03;;
5121;SDS011;2563;52.242;7.956;2023-11-21T06:15:08;29.27;;;11.30;;
5121;SDS011;2563;52.242;7.956;2023-11-21T06:17:34;40.00;;;10.70;;
5121;SDS011;2563;52.242;7.956;2023-11-21T06:20:04;28.90;;;10.10;;
5121;SDS011;2563;52.242;7.956;2023-11-21T06:22:39;26.43;;;9.40;;
5121;SDS011;2563;52.242;7.956;2023-11-21T06:25:05;27.20;;;10.90;;
5121;SDS011;2563;52.242;7.956;2023-11-21T06:27:32;24.40;;;9.63;;
5121;SDS011;2563;52.242;7.956;2023-11-21T06:29:59;28.70;;;11.40;;
5121;SDS011;2563;52.242;7.956;2023-11-21T06:32:24;35.37;;;13.70;;
5121;SDS011;2563;52.242;7.956;2023-11-21T06:34:51;32.07;;;10.87;;
5121;SDS011;2563;52.242;7.956;2023-11-21T06:37:19;27.07;;;10.23;;
5121;SDS011;2563;52.242;7.956;2023-11-21T06:39:47;21.27;;;9.37;;
5121;SDS011;2563;52.242;7.956;2023-11-21T06:42:13;25.00;;;9.40;;
5121;SDS011;2563;52.242;7.956;2023-11-21T06:44:40;23.73;;;9.70;;
5121;SDS011;2563;52.242;7.956;2023-11-21T06:47:06;25.70;;;9.97;;
5121;SDS011;2563;52.242;7.956;2023-11-21T06:49:32;25.80;;;10.60;;
5121;SDS011;2563;52.242;7.956;2023-11-21T06:51:57;26.83;;;9.90;;
5121;SDS011;2563;52.242;7.956;2023-11-21T06:54:23;25.47;;;9.50;;
5121;SDS011;2563;52.242;7.956;2023-11-21T06:56:49;23.57;;;9.30;;
5121;SDS011;2563;52.242;7.956;2023-11-21T06:59:15;26.83;;;10.43;;
5121;SDS011;2563;52.242;7.956;2023-11-21T07:01:40;23.50;;;8.40;;
5121;SDS011;2563;52.242;7.956;2023-11-21T07:04:06;23.30;;;9.30;;
5121;SDS011;2563;52.242;7.956;2023-11-21T07:06:32;25.50;;;9.33;;
5121;SDS011;2563;52.242;7.956;2023-11-21T07:08:58;21.27;;;8.33;;
5121;SDS011;2563;52.242;7.956;2023-11-21T07:11:23;17.97;;;8.03;;
5121;SDS011;2563;52.242;7.956;2023-11-21T07:13:50;15.40;;;7.07;;
5121;SDS011;2563;52.242;7.956;2023-11-21T07:16:15;17.57;;;7.30;;
5121;SDS011;2563;52.242;7.956;2023-11-21T07:18:41;18.00;;;8.40;;
5121;SDS011;2563;52.242;7.956;2023-11-21T07:21:06;17.10;;;7.70;;
5121;SDS011;2563;52.242;7.956;2023-11-21T07:23:33;22.97;;;8.20;;
5121;SDS011;2563;52.242;7.956;2023-11-21T07:25:59;19.17;;;7.90;;
5121;SDS011;2563;52.242;7.956;2023-11-21T07:28:24;15.70;;;6.07;;
5121;SDS011;2563;52.242;7.956;2023-11-21T07:30:50;14.60;;;6.30;;
5121;SDS011;2563;52.242;7.956;2023-11-21T07:33:16;17.73;;;6.90;;
5121;SDS011;2563;52.242;7.956;2023-11-21T07:35:42;13.70;;;5.30;;
5121;SDS011;2563;52.242;7.956;2023-11-21T07:38:08;14.53;;;5.90;;
5121;SDS011;2563;52.242;7.956;2023-11-21T07:40:33;13.37;;;5.37;;
5121;SDS011;2563;52.242;7.956;2023-11-21T07:42:59;13.80;;;6.30;;
5121;SDS011;2563;52.242;7.956;2023-11-21T07:45:24;12.70;;;5.03;;
5121;SDS011;2563;52.242;7.956;2023-11-21T07:47:52;16.30;;;5.50;;
5121;SDS011;2563;52.242;7.956;2023-11-21T07:50:18;12.73;;;4.77;;
5121;SDS011;2563;52.242;7.956;2023-11-21T07:52:45;10.37;;;4.20;;
5121;SDS011;2563;52.242;7.956;2023-11-21T07:55:10;12.43;;;5.00;;
5121;SDS011;2563;52.242;7.956;2023-11-21T07:57:36;9.90;;;4.50;;
5121;SDS011;2563;52.242;7.956;2023-11-21T08:00:01;16.00;;;6.00;;
5121;SDS011;2563;52.242;7.956;2023-11-21T08:02:28;13.10;;;5.73;;
5121;SDS011;2563;52.242;7.956;2023-11-21T08:04:54;12.10;;;4.70;;
5121;SDS011;2563;52.242;7.956;2023-11-21T08:07:21;11.80;;;4.80;;
5121;SDS011;2563;52.242;7.956;2023-11-21T08:09:47;11.53;;;4.40;;
5121;SDS011;2563;52.242;7.956;2023-11-21T08:12:15;12.13;;;5.20;;
5121;SDS011;2563;52.242;7.956;2023-11-21T08:14:40;10.90;;;4.37;;
5121;SDS011;2563;52.242;7.956;2023-11-21T08:17:06;12.33;;;5.03;;
5121;SDS011;2563;52.242;7.956;2023-11-21T08:19:31;14.37;;;5.03;;
5121;SDS011;2563;52.242;7.956;2023-11-21T08:21:58;12.90;;;5.70;;
5121;SDS011;2563;52.242;7.956;2023-11-21T08:24:24;12.07;;;4.40;;
5121;SDS011;2563;52.242;7.956;2023-11-21T08:26:49;10.97;;;4.33;;
5121;SDS011;2563;52.242;7.956;2023-11-21T08:29:17;13.27;;;5.60;;
5121;SDS011;2563;52.242;7.956;2023-11-21T08:31:43;13.10;;;5.10;;
5121;SDS011;2563;52.242;7.956;2023-11-21T08:34:11;16.47;;;4.27;;
5121;SDS011;2563;52.242;7.956;2023-11-21T08:36:40;16.03;;;5.37;;
5121;SDS011;2563;52.242;7.956;2023-11-21T08:39:07;13.87;;;5.30;;
5121;SDS011;2563;52.242;7.956;2023-11-21T08:41:32;17.77;;;5.93;;
5121;SDS011;2563;52.242;7.956;2023-11-21T08:43:57;17.70;;;6.17;;
5121;SDS011;2563;52.242;7.956;2023-11-21T08:46:23;21.73;;;6.27;;
5121;SDS011;2563;52.242;7.956;2023-11-21T08:48:50;16.80;;;5.70;;
5121;SDS011;2563;52.242;7.956;2023-11-21T08:51:17;13.90;;;5.10;;
5121;SDS011;2563;52.242;7.956;2023-11-21T08:53:43;13.70;;;5.40;;
5121;SDS011;2563;52.242;7.956;2023-11-21T08:56:17;15.67;;;6.17;;
5121;SDS011;2563;52.242;7.956;2023-11-21T08:58:43;14.43;;;5.73;;
5121;SDS011;2563;52.242;7.956;2023-11-21T09:01:09;17.33;;;6.90;;
5121;SDS011;2563;52.242;7.956;2023-11-21T09:03:34;18.10;;;6.10;;
5121;SDS011;2563;52.242;7.956;2023-11-21T09:06:00;17.07;;;5.87;;
5121;SDS011;2563;52.242;7.956;2023-11-21T09:08:25;17.10;;;6.47;;
5121;SDS011;2563;52.242;7.956;2023-11-21T09:10:53;18.77;;;6.40;;
5121;SDS011;2563;52.242;7.956;2023-11-21T09:13:18;15.43;;;6.50;;
5121;SDS011;2563;52.242;7.956;2023-11-21T09:15:43;16.00;;;6.27;;
5121;SDS011;2563;52.242;7.956;2023-11-21T09:18:12;14.80;;;6.50;;
5121;SDS011;2563;52.242;7.956;2023-11-21T09:20:40;16.63;;;6.80;;
5121;SDS011;2563;52.242;7.956;2023-11-21T09:23:07;22.90;;;7.50;;
5121;SDS011;2563;52.242;7.956;2023-11-21T09:25:33;26.60;;;7.17;;
5121;SDS011;2563;52.242;7.956;2023-11-21T09:27:59;19.83;;;7.33;;
5121;SDS011;2563;52.242;7.956;2023-11-21T09:30:24;16.33;;;7.50;;
5121;SDS011;2563;52.242;7.956;2023-11-21T09:32:50;19.43;;;7.90;;
5121;SDS011;2563;52.242;7.956;2023-11-21T09:35:16;21.03;;;8.33;;
5121;SDS011;2563;52.242;7.956;2023-11-21T09:37:43;18.87;;;7.63;;
5121;SDS011;2563;52.242;7.956;2023-11-21T09:40:11;18.03;;;7.43;;
5121;SDS011;2563;52.242;7.956;2023-11-21T09:43:04;15.30;;;6.17;;
5121;SDS011;2563;52.242;7.956;2023-11-21T09:45:34;13.77;;;6.30;;
5121;SDS011;2563;52.242;7.956;2023-11-21T09:48:01;17.00;;;6.10;;
5121;SDS011;2563;52.242;7.956;2023-11-21T09:50:27;13.10;;;5.83;;
5121;SDS011;2563;52.242;7.956;2023-11-21T09:55:35;14.10;;;5.43;;
5121;SDS011;2563;52.242;7.956;2023-11-21T09:58:03;13.43;;;5.33;;
5121;SDS011;2563;52.242;7.956;2023-11-21T10:00:32;10.87;;;4.50;;
5121;SDS011;2563;52.242;7.956;2023-11-21T10:02:58;10.67;;;3.90;;
5121;SDS011;2563;52.242;7.956;2023-11-21T10:05:24;11.30;;;4.30;;
5121;SDS011;2563;52.242;7.956;2023-11-21T10:07:50;10.60;;;4.23;;
5121;SDS011;2563;52.242;7.956;2023-11-21T10:10:19;8.47;;;3.70;;
5121;SDS011;2563;52.242;7.956;2023-11-21T10:12:50;9.90;;;3.70;;
5121;SDS011;2563;52.242;7.956;2023-11-21T10:15:21;7.90;;;3.50;;
5121;SDS011;2563;52.242;7.956;2023-11-21T10:17:48;10.17;;;3.97;;
5121;SDS011;2563;52.242;7.956;2023-11-21T10:20:15;10.67;;;4.13;;
5121;SDS011;2563;52.242;7.956;2023-11-21T10:22:41;8.90;;;3.97;;
5121;SDS011;2563;52.242;7.956;2023-11-21T10:25:10;8.23;;;3.53;;
5121;SDS011;2563;52.242;7.956;2023-11-21T10:27:36;8.80;;;3.70;;
5121;SDS011;2563;52.242;7.956;2023-11-21T10:30:04;9.67;;;3.87;;
5121;SDS011;2563;52.242;7.956;2023-11-21T10:32:36;10.27;;;4.50;;
5121;SDS011;2563;52.242;7.956;2023-11-21T10:35:02;8.80;;;3.53;;
5121;SDS011;2563;52.242;7.956;2023-11-21T10:37:35;8.27;;;3.43;;
5121;SDS011;2563;52.242;7.956;2023-11-21T10:40:07;8.97;;;3.63;;
5121;SDS011;2563;52.242;7.956;2023-11-21T10:42:37;11.60;;;3.80;;
5121;SDS011;2563;52.242;7.956;2023-11-21T10:45:03;9.27;;;3.77;;
5121;SDS011;2563;52.242;7.956;2023-11-21T10:47:31;11.10;;;4.90;;
5121;SDS011;2563;52.242;7.956;2023-11-21T10:49:57;10.10;;;4.17;;
5121;SDS011;2563;52.242;7.956;2023-11-21T10:52:24;13.93;;;4.50;;
5121;SDS011;2563;52.242;7.956;2023-11-21T10:54:52;11.67;;;4.43;;
5121;SDS011;2563;52.242;7.956;2023-11-21T10:57:17;12.93;;;5.23;;
5121;SDS011;2563;52.242;7.956;2023-11-21T10:59:44;8.60;;;4.20;;
5121;SDS011;2563;52.242;7.956;2023-11-21T11:02:23;9.20;;;3.90;;
5121;SDS011;2563;52.242;7.956;2023-11-21T11:04:53;10.10;;;4.70;;
5121;SDS011;2563;52.242;7.956;2023-11-21T11:07:21;11.33;;;4.27;;
5121;SDS011;2563;52.242;7.956;2023-11-21T11:09:50;10.03;;;4.53;;
5121;SDS011;2563;52.242;7.956;2023-11-21T11:12:17;10.40;;;4.60;;
5121;SDS011;2563;52.242;7.956;2023-11-21T11:14:44;8.90;;;4.07;;
5121;SDS011;2563;52.242;7.956;2023-11-21T11:17:10;13.53;;;5.13;;
5121;SDS011;2563;52.242;7.956;2023-11-21T11:19:37;12.33;;;5.10;;
5121;SDS011;2563;52.242;7.956;2023-11-21T11:34:06;12.40;;;5.13;;
5121;SDS011;2563;52.242;7.956;2023-11-21T11:36:49;12.23;;;5.07;;
5121;SDS011;2563;52.242;7.956;2023-11-21T11:39:36;11.00;;;5.57;;
5121;SDS011;2563;52.242;7.956;2023-11-21T11:42:04;12.00;;;5.63;;
5121;SDS011;2563;52.242;7.956;2023-11-21T11:47:21;13.63;;;5.80;;
5121;SDS011;2563;52.242;7.956;2023-11-21T11:52:48;19.63;;;7.80;;
5121;SDS011;2563;52.242;7.956;2023-11-21T11:55:17;18.40;;;8.20;;
5121;SDS011;2563;52.242;7.956;2023-11-21T11:57:43;14.80;;;7.10;;
5121;SDS011;2563;52.242;7.956;2023-11-21T12:02:42;16.20;;;6.23;;
5121;SDS011;2563;52.242;7.956;2023-11-21T12:05:13;18.70;;;8.10;;
5121;SDS011;2563;52.242;7.956;2023-11-21T12:07:53;16.10;;;7.93;;
5121;SDS011;2563;52.242;7.956;2023-11-21T12:10:20;20.10;;;9.10;;
5121;SDS011;2563;52.242;7.956;2023-11-21T12:12:50;21.43;;;9.13;;
5121;SDS011;2563;52.242;7.956;2023-11-21T12:15:20;16.93;;;8.30;;
5121;SDS011;2563;52.242;7.956;2023-11-21T12:17:47;17.00;;;7.50;;
5121;SDS011;2563;52.242;7.956;2023-11-21T12:20:14;23.47;;;9.50;;
5121;SDS011;2563;52.242;7.956;2023-11-21T12:25:12;18.83;;;8.63;;
5121;SDS011;2563;52.242;7.956;2023-11-21T12:27:49;15.57;;;7.90;;
5121;SDS011;2563;52.242;7.956;2023-11-21T12:30:16;13.93;;;6.67;;
5121;SDS011;2563;52.242;7.956;2023-11-21T12:32:43;18.83;;;8.10;;
5121;SDS011;2563;52.242;7.956;2023-11-21T12:35:11;16.83;;;7.80;;
5121;SDS011;2563;52.242;7.956;2023-11-21T12:37:41;15.90;;;6.40;;
5121;SDS011;2563;52.242;7.956;2023-11-21T12:40:09;14.80;;;6.90;;
5121;SDS011;2563;52.242;7.956;2023-11-21T12:42:43;13.80;;;6.40;;
5121;SDS011;2563;52.242;7.956;2023-11-21T12:47:49;13.70;;;6.37;;
5121;SDS011;2563;52.242;7.956;2023-11-21T12:50:22;14.07;;;6.00;;
5121;SDS011;2563;52.242;7.956;2023-11-21T12:52:51;16.03;;;5.73;;
5121;SDS011;2563;52.242;7.956;2023-11-21T12:55:19;16.73;;;5.60;;
5121;SDS011;2563;52.242;7.956;2023-11-21T12:57:48;17.17;;;6.20;;
5121;SDS011;2563;52.242;7.956;2023-11-21T13:00:19;12.73;;;5.70;;
5121;SDS011;2563;52.242;7.956;2023-11-21T13:02:55;13.80;;;5.73;;
5121;SDS011;2563;52.242;7.956;2023-11-21T13:05:35;10.90;;;5.60;;
5121;SDS011;2563;52.242;7.956;2023-11-21T13:08:07;13.30;;;5.20;;
5121;SDS011;2563;52.242;7.956;2023-11-21T13:10:37;15.10;;;5.30;;
5121;SDS011;2563;52.242;7.956;2023-11-21T13:13:09;12.53;;;6.03;;
5121;SDS011;2563;52.242;7.956;2023-11-21T13:15:46;12.10;;;5.60;;
5121;SDS011;2563;52.242;7.956;2023-11-21T13:18:13;13.77;;;5.27;;
5121;SDS011;2563;52.242;7.956;2023-11-21T13:20:39;17.53;;;5.13;;
5121;SDS011;2563;52.242;7.956;2023-11-21T13:23:09;10.63;;;5.03;;
5121;SDS011;2563;52.242;7.956;2023-11-21T13:25:41;10.97;;;5.00;;
5121;SDS011;2563;52.242;7.956;2023-11-21T13:28:07;9.80;;;4.23;;
5121;SDS011;2563;52.242;7.956;2023-11-21T13:30:34;11.17;;;4.40;;
5121;SDS011;2563;52.242;7.956;2023-11-21T13:33:03;10.17;;;4.13;;
5121;SDS011;2563;52.242;7.956;2023-11-21T13:35:36;9.47;;;4.00;;
5121;SDS011;2563;52.242;7.956;2023-11-21T13:38:05;16.43;;;5.60;;
5121;SDS011;2563;52.242;7.956;2023-11-21T13:40:32;10.10;;;4.60;;
5121;SDS011;2563;52.242;7.956;2023-11-21T13:43:04;11.60;;;4.53;;
5121;SDS011;2563;52.242;7.956;2023-11-21T13:45:34;14.07;;;5.43;;
5121;SDS011;2563;52.242;7.956;2023-11-21T13:48:05;9.90;;;4.70;;
5121;SDS011;2563;52.242;7.956;2023-11-21T13:50:35;10.73;;;5.10;;
5121;SDS011;2563;52.242;7.956;2023-11-21T13:53:01;12.03;;;5.87;;
5121;SDS011;2563;52.242;7.956;2023-11-21T13:55:34;13.87;;;5.00;;
5121;SDS011;2563;52.242;7.956;2023-11-21T13:58:00;10.90;;;5.17;;
5121;SDS011;2563;52.242;7.956;2023-11-21T14:00:27;11.23;;;5.47;;
5121;SDS011;2563;52.242;7.956;2023-11-21T14:03:07;9.90;;;4.37;;
5121;SDS011;2563;52.242;7.956;2023-11-21T14:05:42;13.97;;;6.60;;
5121;SDS011;2563;52.242;7.956;2023-11-21T14:08:08;10.57;;;5.33;;
5121;SDS011;2563;52.242;7.956;2023-11-21T14:10:36;14.67;;;6.57;;
5121;SDS011;2563;52.242;7.956;2023-11-21T14:13:08;9.90;;;4.83;;
5121;SDS011;2563;52.242;7.956;2023-11-21T14:15:38;13.30;;;5.63;;
5121;SDS011;2563;52.242;7.956;2023-11-21T14:18:07;14.90;;;6.80;;
5121;SDS011;2563;52.242;7.956;2023-11-21T14:20:35;14.67;;;6.37;;
5121;SDS011;2563;52.242;7.956;2023-11-21T14:23:04;12.03;;;5.60;;
5121;SDS011;2563;52.242;7.956;2023-11-21T14:25:31;14.87;;;6.10;;
5121;SDS011;2563;52.242;7.956;2023-11-21T14:27:58;11.97;;;6.07;;
5121;SDS011;2563;52.242;7.956;2023-11-21T14:30:23;10.60;;;5.27;;
5121;SDS011;2563;52.242;7.956;2023-11-21T14:32:50;15.63;;;5.63;;
5121;SDS011;2563;52.242;7.956;2023-11-21T14:35:16;11.37;;;5.70;;
5121;SDS011;2563;52.242;7.956;2023-11-21T14:37:42;15.20;;;6.10;;
5121;SDS011;2563;52.242;7.956;2023-11-21T14:40:08;18.10;;;8.80;;
5121;SDS011;2563;52.242;7.956;2023-11-21T14:42:34;16.43;;;6.03;;
5121;SDS011;2563;52.242;7.956;2023-11-21T14:45:02;12.03;;;6.00;;
5121;SDS011;2563;52.242;7.956;2023-11-21T14:47:31;15.90;;;6.10;;
5121;SDS011;2563;52.242;7.956;2023-11-21T14:49:57;14.30;;;6.20;;
5121;SDS011;2563;52.242;7.956;2023-11-21T14:52:24;15.87;;;5.20;;
5121;SDS011;2563;52.242;7.956;2023-11-21T14:55:08;12.10;;;5.43;;
5121;SDS011;2563;52.242;7.956;2023-11-21T14:57:51;10.70;;;4.83;;
5121;SDS011;2563;52.242;7.956;2023-11-21T15:00:17;20.23;;;5.67;;
5121;SDS011;2563;52.242;7.956;2023-11-21T15:03:16;12.43;;;5.57;;
5121;SDS011;2563;52.242;7.956;2023-11-21T15:06:04;11.73;;;5.00;;
5121;SDS011;2563;52.242;7.956;2023-11-21T15:08:53;13.63;;;4.87;;
5121;SDS011;2563;52.242;7.956;2023-11-21T15:11:43;24.43;;;12.70;;
5121;SDS011;2563;52.242;7.956;2023-11-21T15:14:08;43.40;;;20.67;;
5121;SDS011;2563;52.242;7.956;2023-11-21T15:16:37;34.00;;;17.80;;
5121;SDS011;2563;52.242;7.956;2023-11-21T15:19:06;17.00;;;9.80;;
5121;SDS011;2563;52.242;7.956;2023-11-21T15:21:33;27.53;;;14.07;;
5121;SDS011;2563;52.242;7.956;2023-11-21T15:23:58;21.37;;;12.00;;
5121;SDS011;2563;52.242;7.956;2023-11-21T15:26:24;19.97;;;9.10;;
5121;SDS011;2563;52.242;7.956;2023-11-21T15:28:49;22.20;;;11.90;;
5121;SDS011;2563;52.242;7.956;2023-11-21T15:31:14;25.43;;;14.07;;